Time;durP1;ratioP1;P1;durP2;ratioP2;P2;SDS_P1;SDS_P2;PMS_P1;PMS_P2;Temp;Humidity;BMP_temperature;BMP_pressure;BME280_temperature;BME280_humidity;BME280_pressure;Samples;Min_cycle;Max_cycle;Signal;HPM_P1;HPM_P2
2022/11/10 00:02:07;;;;;;;7.38;3.92;;;;;;;13.10;64.83;101659.84;5168948;27;20042;-59
2022/11/10 00:04:35;;;;;;;9.10;2.47;;;;;;;13.09;64.74;101666.28;5166247;27;20052;-59
2022/11/10 00:07:03;;;;;;;5.78;1.90;;;;;;;13.08;64.62;101673.56;5170088;27;20072;-59
2022/11/10 00:09:32;;;;;;;5.15;2.17;;;;;;;13.08;64.51;101681.66;5167945;27;20061;-59
2022/11/10 00:12:00;;;;;;;7.97;1.85;;;;;;;13.07;64.76;101673.78;5168730;27;20043;-58
2022/11/10 00:17:13;;;;;;;9.43;2.13;;;;;;;13.07;64.68;101680.00;5163075;27;20055;-60
2022/11/10 00:19:40;;;;;;;8.70;3.03;;;;;;;13.06;64.56;101686.44;5170148;27;20061;-60
2022/11/10 00:22:08;;;;;;;7.78;2.95;;;;;;;13.05;64.84;101671.31;5151860;27;20137;-60
2022/11/10 00:24:37;;;;;;;6.75;1.92;;;;;;;13.04;64.59;101675.88;5168531;27;20137;-59
2022/11/10 00:27:05;;;;;;;7.05;2.00;;;;;;;13.05;64.61;101679.41;5168542;27;20062;-59
2022/11/10 00:29:33;;;;;;;7.13;2.33;;;;;;;13.02;64.80;101686.06;5162409;27;20061;-60
2022/11/10 00:32:00;;;;;;;8.13;2.03;;;;;;;13.04;64.49;101680.44;5167576;27;20042;-58
2022/11/10 00:34:28;;;;;;;7.85;2.15;;;;;;;13.02;64.46;101685.22;5156403;27;20057;-58
2022/11/10 00:36:56;;;;;;;7.57;1.92;;;;;;;13.01;64.55;101687.09;5163637;27;20051;-59
2022/11/10 00:39:23;;;;;;;8.07;3.15;;;;;;;12.99;64.65;101693.75;5169954;27;20057;-59
2022/11/10 00:41:52;;;;;;;8.77;2.53;;;;;;;12.99;64.37;101696.47;5168856;27;20069;-60
2022/11/10 00:44:20;;;;;;;7.65;2.42;;;;;;;12.97;64.73;101702.06;5168384;27;20047;-59
2022/11/10 00:46:48;;;;;;;6.03;2.03;;;;;;;12.96;64.78;101713.91;5165008;27;20053;-59
2022/11/10 00:49:15;;;;;;;6.03;2.25;;;;;;;12.97;64.76;101717.44;5169642;27;20057;-59
2022/11/10 00:51:43;;;;;;;7.13;2.08;;;;;;;12.95;64.52;101720.34;5165401;27;20057;-60
2022/11/10 00:54:11;;;;;;;8.05;2.00;;;;;;;12.95;64.83;101714.13;5168666;27;20064;-59
2022/11/10 00:56:39;;;;;;;8.70;2.25;;;;;;;12.93;64.42;101719.75;5166449;27;20050;-59
2022/11/10 00:59:08;;;;;;;7.15;2.55;;;;;;;12.93;64.69;101716.22;5169855;27;20057;-59
2022/11/10 01:01:35;;;;;;;6.43;2.78;;;;;;;12.93;64.36;101718.91;5155028;27;20054;-59
2022/11/10 01:04:04;;;;;;;5.45;2.05;;;;;;;12.92;64.79;101714.56;5165710;27;20051;-59
2022/11/10 01:06:31;;;;;;;8.73;2.08;;;;;;;12.91;64.75;101710.19;5163941;27;20224;-59
2022/11/10 01:08:59;;;;;;;7.90;2.13;;;;;;;12.91;64.41;101712.91;5162031;27;20050;-59
2022/11/10 01:11:28;;;;;;;7.90;2.22;;;;;;;12.90;64.40;101708.56;5168356;27;20050;-59
2022/11/10 01:13:56;;;;;;;9.35;2.72;;;;;;;12.87;64.55;101712.50;5161175;27;20050;-59
2022/11/10 01:16:27;;;;;;;8.95;2.17;;;;;;;12.87;64.42;101706.28;5165205;27;20043;-61
2022/11/10 01:18:56;;;;;;;7.47;2.13;;;;;;;12.87;64.33;101714.38;5162468;27;20042;-58
2022/11/10 01:21:25;;;;;;;10.32;2.55;;;;;;;12.85;64.74;101720.00;5166154;27;20046;-59
2022/11/10 01:23:53;;;;;;;8.52;2.38;;;;;;;12.85;64.79;101725.38;5155556;27;20077;-59
2022/11/10 01:26:21;;;;;;;9.68;2.90;;;;;;;12.84;64.38;101726.44;5164466;27;20083;-59
2022/11/10 01:28:50;;;;;;;6.07;1.80;;;;;;;12.85;64.51;101735.34;5165410;27;20061;-59
2022/11/10 01:31:19;;;;;;;7.65;2.05;;;;;;;12.84;64.78;101744.47;5165428;27;20052;-59
2022/11/10 01:33:49;;;;;;;9.32;2.83;;;;;;;12.83;64.39;101748.22;5164184;27;20054;-59
2022/11/10 01:36:16;;;;;;;6.63;1.95;;;;;;;12.82;64.76;101758.19;5161519;27;20055;-60
2022/11/10 01:38:44;;;;;;;8.02;2.33;;;;;;;12.81;64.80;101758.41;5164863;27;20047;-59
2022/11/10 01:41:13;;;;;;;9.93;2.10;;;;;;;12.80;64.66;101749.47;5151171;27;20162;-58
2022/11/10 01:43:42;;;;;;;8.23;2.42;;;;;;;12.81;64.81;101753.00;5161366;27;20045;-58
2022/11/10 01:46:11;;;;;;;8.98;2.20;;;;;;;12.80;64.79;101759.44;5165758;27;20051;-59
2022/11/10 01:48:43;;;;;;;7.65;2.28;;;;;;;12.80;64.70;101762.97;5166662;27;20043;-59
2022/11/10 01:51:18;;;;;;;9.20;2.55;;;;;;;12.80;64.40;101759.44;5164967;27;20076;-59
2022/11/10 01:53:50;;;;;;;9.13;2.40;;;;;;;12.79;64.35;101755.09;5168299;27;20039;-59
2022/11/10 01:56:19;;;;;;;8.25;2.00;;;;;;;12.78;64.79;101754.25;5166373;27;20045;-59
2022/11/10 01:58:51;;;;;;;7.75;2.08;;;;;;;12.79;64.53;101758.63;5164808;27;20488;-59
2022/11/10 02:01:19;;;;;;;7.57;2.20;;;;;;;12.77;64.48;101752.59;5162335;27;20054;-59
2022/11/10 02:03:50;;;;;;;9.85;2.47;;;;;;;12.78;64.61;101754.25;5167357;27;20072;-60
2022/11/10 02:06:25;;;;;;;9.05;2.00;;;;;;;12.77;64.68;101751.78;5166560;27;20043;-60
2022/11/10 02:08:53;;;;;;;6.32;1.92;;;;;;;12.76;64.61;101750.13;5166520;27;20051;-60
2022/11/10 02:11:22;;;;;;;7.47;1.80;;;;;;;12.76;64.35;101750.94;5163855;27;20050;-59
2022/11/10 02:13:50;;;;;;;12.93;3.05;;;;;;;12.75;64.50;101752.00;5164723;27;20092;-59
2022/11/10 02:16:19;;;;;;;6.20;1.95;;;;;;;12.74;64.50;101761.13;5164955;27;20051;-60
2022/11/10 02:18:47;;;;;;;9.30;2.22;;;;;;;12.73;64.92;101748.69;5157301;27;20038;-59
2022/11/10 02:21:18;;;;;;;9.63;2.20;;;;;;;12.73;64.81;101753.25;5166773;27;20046;-59
2022/11/10 02:23:48;;;;;;;10.02;2.30;;;;;;;12.72;64.51;101747.03;5159581;27;20045;-60
2022/11/10 02:26:20;;;;;;;5.28;1.85;;;;;;;12.71;64.46;101761.56;5165722;27;20142;-59
2022/11/10 02:28:48;;;;;;;7.95;2.83;;;;;;;12.70;64.34;101759.91;5154522;27;20042;-58
2022/11/10 02:31:16;;;;;;;7.72;2.30;;;;;;;12.70;64.50;101768.00;5162311;27;20055;-59
2022/11/10 02:33:43;;;;;;;8.90;2.70;;;;;;;12.69;64.69;101779.81;5161337;27;20137;-58
2022/11/10 02:36:11;;;;;;;6.20;2.17;;;;;;;12.68;64.65;101780.84;5166422;27;20065;-58
2022/11/10 02:38:41;;;;;;;7.38;2.33;;;;;;;12.66;64.62;101783.78;5156532;27;20049;-58
2022/11/10 02:41:09;;;;;;;11.38;2.10;;;;;;;12.66;64.44;101788.34;5163008;27;20050;-58
2022/11/10 02:43:38;;;;;;;8.40;2.88;;;;;;;12.66;64.50;101793.72;5149430;27;21754;-58
2022/11/10 02:46:06;;;;;;;10.82;2.30;;;;;;;12.66;64.63;101807.22;5165003;27;20138;-59
2022/11/10 02:48:34;;;;;;;9.45;2.67;;;;;;;12.65;64.41;101810.94;5162547;27;20050;-59
2022/11/10 02:51:01;;;;;;;6.18;1.88;;;;;;;12.64;64.55;101817.38;5166993;27;20053;-58
2022/11/10 02:53:29;;;;;;;10.27;2.75;;;;;;;12.63;64.34;101823.81;5161358;27;20070;-59
2022/11/10 02:55:58;;;;;;;6.82;2.50;;;;;;;12.62;64.88;101824.84;5151704;27;20062;-59
2022/11/10 02:58:26;;;;;;;7.20;2.25;;;;;;;12.62;64.82;101822.16;5156463;27;20337;-59
2022/11/10 03:00:53;;;;;;;7.13;3.15;;;;;;;12.61;64.88;101821.34;5164255;27;20038;-59
2022/11/10 03:03:21;;;;;;;6.43;2.10;;;;;;;12.61;64.80;101818.63;5155542;27;20039;-59
2022/11/10 03:05:49;;;;;;;8.18;2.25;;;;;;;12.60;64.55;101810.75;5155732;27;20042;-58
2022/11/10 03:08:17;;;;;;;9.65;2.50;;;;;;;12.59;64.81;101809.09;5153358;27;20054;-58
2022/11/10 03:10:45;;;;;;;11.07;2.20;;;;;;;12.58;64.84;101810.13;5154596;27;20039;-58
2022/11/10 03:13:14;;;;;;;8.30;2.80;;;;;;;12.59;64.77;101815.31;5164746;27;20038;-59
2022/11/10 03:15:42;;;;;;;8.52;1.83;;;;;;;12.57;64.79;101820.09;5157851;27;20050;-59
2022/11/10 03:18:09;;;;;;;6.85;2.72;;;;;;;12.58;64.39;101823.63;5164734;27;20053;-58
2022/11/10 03:20:37;;;;;;;12.30;2.20;;;;;;;12.57;64.46;101824.66;5159912;27;20043;-59
2022/11/10 03:23:05;;;;;;;8.30;2.25;;;;;;;12.54;64.79;101831.31;5154651;27;20043;-58
2022/11/10 03:25:33;;;;;;;6.60;1.88;;;;;;;12.50;64.49;101824.69;5159965;27;20082;-58
2022/11/10 03:28:01;;;;;;;10.23;2.20;;;;;;;12.54;64.81;101830.47;5165140;27;20476;-58
2022/11/10 03:30:30;;;;;;;9.70;2.70;;;;;;;12.54;64.80;101838.56;5157725;27;20043;-58
2022/11/10 03:32:58;;;;;;;8.10;2.03;;;;;;;12.54;64.75;101827.78;5162693;27;20057;-59
2022/11/10 03:35:26;;;;;;;6.10;2.17;;;;;;;12.52;64.81;101849.56;5160269;27;20448;-59
2022/11/10 03:37:53;;;;;;;12.05;2.10;;;;;;;12.52;64.83;101846.03;5164552;27;20146;-59
2022/11/10 03:40:21;;;;;;;7.95;2.08;;;;;;;12.52;64.72;101857.66;5165153;27;20061;-59
2022/11/10 03:42:49;;;;;;;7.75;2.17;;;;;;;12.53;64.46;101858.47;5153863;27;20069;-58
2022/11/10 03:45:16;;;;;;;8.88;2.50;;;;;;;12.51;64.37;101856.00;5159040;27;20050;-59
2022/11/10 03:47:47;;;;;;;9.38;2.47;;;;;;;12.50;64.56;101856.22;5164365;27;20047;-59
2022/11/10 03:50:15;;;;;;;9.93;2.05;;;;;;;12.47;64.84;101859.31;5159720;27;20047;-59
2022/11/10 03:52:44;;;;;;;7.70;2.10;;;;;;;12.48;64.60;101875.28;5165281;27;20034;-59
2022/11/10 03:55:15;;;;;;;6.45;2.13;;;;;;;12.48;64.53;101874.47;5164784;27;20043;-59
2022/11/10 03:57:43;;;;;;;9.90;2.17;;;;;;;12.48;64.48;101882.53;5155903;27;20069;-59
2022/11/10 04:00:12;;;;;;;7.75;2.08;;;;;;;12.47;64.76;101884.41;5164850;27;20047;-59
2022/11/10 04:02:40;;;;;;;10.30;2.10;;;;;;;12.45;64.71;101882.97;5155218;27;20514;-59
2022/11/10 04:10:42;;;;;;;7.15;1.88;;;;;;;12.44;64.89;101894.78;5165051;27;20138;-59
2022/11/10 04:15:56;;;;;;;9.05;2.85;;;;;;;12.42;64.46;101899.56;5162859;27;20056;-59
2022/11/10 04:18:28;;;;;;;9.07;2.45;;;;;;;12.41;64.60;101906.00;5163088;27;20043;-59
2022/11/10 04:20:58;;;;;;;7.90;1.92;;;;;;;12.41;64.58;101914.91;5163166;27;20484;-59
2022/11/10 04:23:27;;;;;;;8.35;2.63;;;;;;;12.41;64.70;101916.78;5161024;27;20043;-59
2022/11/10 04:28:44;;;;;;;8.27;1.98;;;;;;;12.38;64.80;101921.53;5158117;27;20255;-59
2022/11/10 04:31:13;;;;;;;7.75;2.28;;;;;;;12.39;64.65;101931.28;5157317;27;20113;-59
2022/11/10 04:33:42;;;;;;;7.95;1.92;;;;;;;12.37;64.61;101930.66;5157332;27;20047;-60
2022/11/10 04:36:13;;;;;;;11.52;2.30;;;;;;;12.28;64.97;101920.28;5158872;27;20061;-60
2022/11/10 04:38:41;;;;;;;9.48;2.35;;;;;;;12.36;64.57;101933.56;5161051;27;20050;-59
2022/11/10 04:41:09;;;;;;;11.38;2.00;;;;;;;12.35;64.79;101935.44;5161426;27;20535;-59
2022/11/10 04:43:37;;;;;;;7.57;2.33;;;;;;;12.34;64.82;101944.56;5163259;27;20054;-60
2022/11/10 04:46:06;;;;;;;6.93;1.90;;;;;;;12.34;64.79;101941.03;5162985;27;20066;-59
2022/11/10 04:48:35;;;;;;;11.07;2.58;;;;;;;12.33;64.68;101945.59;5162931;27;20042;-59
2022/11/10 04:51:04;;;;;;;9.23;2.33;;;;;;;12.33;64.72;101950.97;5158564;27;20065;-59
2022/11/10 04:53:34;;;;;;;9.15;2.97;;;;;;;12.33;64.47;101958.25;5159921;27;20047;-60
2022/11/10 04:56:01;;;;;;;7.03;3.15;;;;;;;12.32;64.92;101964.66;5164833;27;20126;-59
2022/11/10 04:58:29;;;;;;;10.70;3.13;;;;;;;12.31;64.95;101966.53;5169198;27;20042;-59
2022/11/10 05:00:57;;;;;;;9.10;2.92;;;;;;;12.30;64.62;101969.44;5165605;27;20047;-59
2022/11/10 05:03:25;;;;;;;7.93;1.92;;;;;;;12.28;64.74;101964.25;5158050;27;20070;-59
2022/11/10 05:05:53;;;;;;;7.45;2.50;;;;;;;12.29;64.75;101967.78;5164307;27;20039;-59
2022/11/10 05:08:21;;;;;;;7.80;2.72;;;;;;;12.27;64.65;101976.06;5159950;27;20046;-59
2022/11/10 05:10:50;;;;;;;9.70;2.70;;;;;;;12.26;64.66;101977.09;5155718;27;20042;-59
2022/11/10 05:13:17;;;;;;;8.05;2.30;;;;;;;12.26;64.73;101982.50;5161782;27;20050;-59
2022/11/10 05:15:45;;;;;;;9.50;2.03;;;;;;;12.20;64.64;101974.41;5156897;27;20042;-59
2022/11/10 05:18:13;;;;;;;8.43;2.42;;;;;;;12.27;64.71;102003.03;5162709;27;20394;-59
2022/11/10 05:20:41;;;;;;;6.47;2.20;;;;;;;12.25;64.68;101996.19;5160094;27;20066;-59
2022/11/10 05:25:55;;;;;;;7.60;2.55;;;;;;;12.26;64.99;102003.22;5157712;27;20047;-59
2022/11/10 05:28:23;;;;;;;8.40;2.33;;;;;;;12.25;64.63;101997.00;5164246;27;20156;-59
2022/11/10 05:30:51;;;;;;;7.95;2.13;;;;;;;12.25;64.73;102007.78;5160470;27;20061;-59
2022/11/10 05:33:18;;;;;;;7.93;2.38;;;;;;;12.23;64.62;102001.78;5163023;27;20051;-59
2022/11/10 05:35:49;;;;;;;8.52;2.10;;;;;;;12.25;64.91;102005.09;5158312;27;20038;-59
2022/11/10 05:38:16;;;;;;;8.82;2.35;;;;;;;12.24;64.75;101994.50;5167998;27;20042;-58
2022/11/10 05:40:44;;;;;;;9.48;2.55;;;;;;;12.23;64.89;102001.78;5160633;27;20555;-59
2022/11/10 05:43:14;;;;;;;11.70;2.47;;;;;;;12.22;64.81;101994.72;5161258;27;20038;-59
2022/11/10 05:45:42;;;;;;;6.72;2.40;;;;;;;12.22;64.66;101991.19;5161822;27;20125;-59
2022/11/10 05:48:10;;;;;;;10.32;2.67;;;;;;;12.20;64.61;101991.41;5157122;27;20043;-59
2022/11/10 05:50:37;;;;;;;9.73;2.67;;;;;;;12.20;64.86;101987.88;5166573;27;20046;-59
2022/11/10 05:53:05;;;;;;;7.90;2.60;;;;;;;12.19;64.65;101986.22;5166481;27;20047;-60
2022/11/10 05:55:33;;;;;;;10.73;2.55;;;;;;;12.12;64.69;101986.22;5162808;27;20039;-60
2022/11/10 05:58:00;;;;;;;6.07;2.00;;;;;;;12.19;64.57;102008.59;5164019;27;20069;-59
2022/11/10 06:00:31;;;;;;;7.32;2.05;;;;;;;12.18;64.86;102008.81;5159062;27;20050;-59
2022/11/10 06:03:00;;;;;;;9.27;2.00;;;;;;;12.17;64.69;102009.84;5162061;27;20047;-58
2022/11/10 06:05:30;;;;;;;6.78;2.00;;;;;;;12.18;64.58;102015.03;5162078;27;20039;-60
2022/11/10 06:07:58;;;;;;;8.80;2.13;;;;;;;12.19;64.79;102018.56;5163162;27;20074;-59
2022/11/10 06:10:27;;;;;;;8.90;2.25;;;;;;;12.18;64.73;102024.97;5164144;27;20053;-60
2022/11/10 06:12:55;;;;;;;7.95;2.15;;;;;;;12.17;65.01;102032.22;5162505;27;20046;-59
2022/11/10 06:15:23;;;;;;;6.93;2.10;;;;;;;12.17;64.82;102039.47;4797480;27;10000582;-60
2022/11/10 06:17:53;;;;;;;7.18;2.35;;;;;;;12.16;64.84;102032.44;5163172;27;20039;-61
2022/11/10 06:20:20;;;;;;;7.70;1.95;;;;;;;12.15;64.92;102049.63;5166203;27;20172;-60
2022/11/10 06:22:58;;;;;;;5.43;1.83;;;;;;;12.13;65.01;102041.78;5160010;27;20039;-61
2022/11/10 06:25:27;;;;;;;8.02;2.00;;;;;;;12.14;64.91;102053.38;5167151;27;20038;-60
2022/11/10 06:27:54;;;;;;;10.63;2.33;;;;;;;12.13;64.77;102057.97;5160175;27;20126;-60
2022/11/10 06:30:22;;;;;;;7.32;2.50;;;;;;;12.13;65.14;102057.97;5165016;27;20370;-59
2022/11/10 06:32:51;;;;;;;7.22;2.67;;;;;;;12.13;64.74;102060.66;5166075;27;20050;-63
2022/11/10 06:35:20;;;;;;;8.63;2.22;;;;;;;12.12;65.01;102060.84;5165732;27;20051;-60
2022/11/10 06:37:57;;;;;;;6.13;2.10;;;;;;;12.06;64.87;102059.81;5158180;27;20410;-61
2022/11/10 06:40:25;;;;;;;6.68;1.83;;;;;;;12.10;65.00;102074.53;5162836;27;20065;-59
2022/11/10 06:42:53;;;;;;;11.50;2.25;;;;;;;12.10;64.72;102068.31;5155139;27;20050;-60
2022/11/10 06:45:21;;;;;;;7.13;2.35;;;;;;;12.11;64.96;102083.44;5159039;27;20515;-61
2022/11/10 06:47:49;;;;;;;6.00;2.08;;;;;;;12.09;65.02;102085.50;5160122;27;20051;-60
2022/11/10 06:50:18;;;;;;;6.47;2.30;;;;;;;12.08;65.01;102091.94;5156736;27;20047;-61
2022/11/10 06:52:53;;;;;;;6.68;1.80;;;;;;;12.08;64.88;102100.84;5158451;27;20051;-60
2022/11/10 06:55:21;;;;;;;10.02;2.28;;;;;;;12.07;64.69;102103.75;5161349;27;20047;-60
2022/11/10 06:57:49;;;;;;;10.73;2.78;;;;;;;12.07;64.72;102104.56;5159002;27;20042;-61
2022/11/10 07:00:17;;;;;;;7.93;2.40;;;;;;;12.07;64.68;102107.28;5156897;27;20042;-60
2022/11/10 07:02:45;;;;;;;8.15;2.47;;;;;;;12.07;64.76;102109.13;5159435;27;20046;-60
2022/11/10 07:05:14;;;;;;;9.90;2.67;;;;;;;12.07;65.04;102114.53;5156681;27;20039;-59
2022/11/10 07:07:43;;;;;;;9.63;2.30;;;;;;;12.06;64.81;102121.78;5163509;27;20113;-60
2022/11/10 07:10:11;;;;;;;8.00;2.88;;;;;;;12.04;64.59;102116.59;5160306;27;20047;-60
2022/11/10 07:12:38;;;;;;;8.30;2.30;;;;;;;12.07;64.90;102119.91;5160003;27;20059;-60
2022/11/10 07:15:07;;;;;;;14.00;3.25;;;;;;;12.02;64.98;102134.81;5162957;27;20065;-61
2022/11/10 07:17:39;;;;;;;11.57;2.78;;;;;;;12.01;65.34;102126.94;5158438;27;20051;-60
2022/11/10 07:20:09;;;;;;;8.70;2.50;;;;;;;12.00;65.61;102130.66;5166866;27;20057;-58
2022/11/10 07:22:36;;;;;;;12.20;2.22;;;;;;;12.02;65.35;102139.38;5157932;27;20046;-58
2022/11/10 07:25:06;;;;;;;6.38;3.13;;;;;;;12.03;65.09;102147.25;5164194;27;20034;-59
2022/11/10 07:27:34;;;;;;;12.15;3.50;;;;;;;12.03;65.46;102144.56;5166112;27;20050;-58
2022/11/10 07:30:02;;;;;;;8.75;2.38;;;;;;;12.05;65.17;102155.13;5166145;27;20047;-60
2022/11/10 07:32:30;;;;;;;10.60;3.05;;;;;;;12.04;65.01;102159.69;5159249;27;20047;-59
2022/11/10 07:34:57;;;;;;;10.10;3.00;;;;;;;12.07;65.01;102161.16;5145886;27;20050;-60
2022/11/10 07:37:25;;;;;;;10.50;3.67;;;;;;;12.06;65.28;102178.38;5154026;27;20053;-60
2022/11/10 07:39:52;;;;;;;11.70;2.88;;;;;;;12.04;65.06;102178.56;5166641;27;20039;-59
2022/11/10 07:42:21;;;;;;;8.70;2.47;;;;;;;12.03;65.36;102176.06;5165959;27;20046;-59
2022/11/10 07:44:49;;;;;;;7.68;2.35;;;;;;;12.04;65.28;102177.72;5154957;27;20050;-59
2022/11/10 07:47:17;;;;;;;8.60;2.30;;;;;;;12.04;65.09;102185.81;5163577;27;20046;-59
2022/11/10 07:49:44;;;;;;;15.45;2.83;;;;;;;12.04;65.30;102183.94;5157200;27;20058;-59
2022/11/10 07:52:12;;;;;;;7.45;2.38;;;;;;;12.03;65.23;102176.91;5149623;27;20047;-59
2022/11/10 07:54:40;;;;;;;9.27;2.42;;;;;;;12.05;65.35;102177.53;5161573;27;20054;-64
2022/11/10 07:57:07;;;;;;;11.00;2.70;;;;;;;12.05;65.25;102177.53;5160510;27;20046;-59
2022/11/10 07:59:36;;;;;;;8.32;2.20;;;;;;;12.07;65.09;102179.19;5163142;27;20065;-59
2022/11/10 08:02:04;;;;;;;9.65;2.58;;;;;;;12.07;65.45;102190.81;5157333;27;20054;-60
2022/11/10 08:04:32;;;;;;;10.88;2.28;;;;;;;12.05;65.55;102193.69;5147470;27;20047;-60
2022/11/10 08:07:00;;;;;;;12.88;2.75;;;;;;;12.07;65.63;102200.75;5146252;27;20061;-61
2022/11/10 08:09:28;;;;;;;10.77;2.40;;;;;;;12.05;65.48;102212.56;5160783;27;20046;-60
2022/11/10 08:11:55;;;;;;;10.20;2.72;;;;;;;12.05;65.48;102206.34;5149540;27;20056;-59
2022/11/10 08:14:23;;;;;;;8.27;2.58;;;;;;;12.04;65.42;102208.19;5159175;27;20046;-60
2022/11/10 08:16:52;;;;;;;9.38;2.45;;;;;;;12.04;65.28;102207.38;5186254;27;20050;-61
2022/11/10 08:19:20;;;;;;;9.93;2.50;;;;;;;12.04;65.39;102224.38;5151836;27;20119;-60
2022/11/10 08:21:48;;;;;;;13.40;3.33;;;;;;;12.03;65.52;102227.25;5150683;27;20161;-61
2022/11/10 08:24:15;;;;;;;8.40;2.38;;;;;;;12.02;65.37;102226.44;5162269;27;20046;-62
2022/11/10 08:26:43;;;;;;;9.13;2.78;;;;;;;12.03;65.69;102229.97;5160952;27;20053;-62
2022/11/10 08:29:11;;;;;;;9.02;2.83;;;;;;;12.01;65.52;102223.94;5157526;27;20047;-62
2022/11/10 08:31:39;;;;;;;8.10;2.20;;;;;;;12.02;65.53;102233.69;5158000;27;20532;-62
2022/11/10 08:34:08;;;;;;;8.88;2.35;;;;;;;12.01;65.59;102232.84;5160861;27;20046;-62
2022/11/10 08:36:36;;;;;;;7.63;2.28;;;;;;;12.01;65.42;102232.84;5160579;27;20042;-62
2022/11/10 08:39:05;;;;;;;11.32;2.85;;;;;;;12.00;65.70;102230.34;5163305;27;20074;-62
2022/11/10 08:41:32;;;;;;;10.65;3.17;;;;;;;12.01;65.74;102234.72;5168591;27;20046;-62
2022/11/10 08:44:00;;;;;;;6.60;2.15;;;;;;;12.01;65.66;102243.63;5168336;27;20042;-62
2022/11/10 08:46:28;;;;;;;12.20;2.67;;;;;;;12.03;65.42;102240.72;5162107;27;20043;-62
2022/11/10 08:48:55;;;;;;;8.50;2.72;;;;;;;12.08;65.79;102243.66;5162788;27;20047;-62
2022/11/10 08:51:25;;;;;;;11.68;2.20;;;;;;;12.08;65.67;102238.28;5149105;27;20043;-60
2022/11/10 08:53:52;;;;;;;7.38;2.90;;;;;;;12.16;65.55;102248.88;5160284;27;20057;-59
2022/11/10 08:56:20;;;;;;;9.90;2.25;;;;;;;12.14;65.68;102239.31;5153630;27;20110;-63
2022/11/10 08:58:49;;;;;;;9.75;2.88;;;;;;;12.15;66.00;102244.50;5149417;27;20058;-61
2022/11/10 09:01:20;;;;;;;9.75;2.75;;;;;;;12.16;66.05;102248.88;5148098;27;20051;-60
2022/11/10 09:03:48;;;;;;;8.80;2.83;;;;;;;12.17;66.41;102257.78;5154653;27;20051;-61
2022/11/10 09:06:15;;;;;;;8.55;2.60;;;;;;;12.15;65.76;102257.16;5160425;27;20054;-61
2022/11/10 09:08:44;;;;;;;8.38;3.58;;;;;;;12.15;66.19;102260.69;5160878;27;20110;-60
2022/11/10 09:11:12;;;;;;;8.63;2.67;;;;;;;12.17;66.15;102265.88;5148393;27;20043;-61
2022/11/10 09:13:40;;;;;;;11.18;2.90;;;;;;;12.16;66.17;102259.66;5148486;27;20054;-60
2022/11/10 09:16:08;;;;;;;13.07;3.45;;;;;;;12.18;66.47;102270.22;5153299;27;20053;-61
2022/11/10 09:18:35;;;;;;;8.77;2.70;;;;;;;12.17;66.24;102269.41;5168788;27;20050;-59
2022/11/10 09:21:10;;;;;;;12.10;2.50;;;;;;;12.21;66.15;102269.84;5164544;27;20445;-59
2022/11/10 09:23:38;;;;;;;10.50;2.75;;;;;;;12.28;66.51;102279.63;5153027;27;20043;-59
2022/11/10 09:26:07;;;;;;;10.55;2.67;;;;;;;12.35;66.43;102277.81;5168871;27;20055;-62
2022/11/10 09:28:35;;;;;;;8.32;2.63;;;;;;;12.30;66.04;102279.44;5162844;27;20039;-62
2022/11/10 09:31:02;;;;;;;8.13;2.63;;;;;;;12.27;66.54;102285.22;5147468;27;20567;-61
2022/11/10 09:33:30;;;;;;;18.27;3.55;;;;;;;12.27;66.45;102291.44;5148141;27;20049;-61
2022/11/10 09:35:58;;;;;;;9.85;2.78;;;;;;;12.27;66.51;102275.28;5167178;27;20047;-62
2022/11/10 09:38:26;;;;;;;10.25;2.83;;;;;;;12.27;66.33;102288.75;5160078;27;20408;-62
2022/11/10 09:41:01;;;;;;;7.45;2.58;;;;;;;12.27;66.79;102280.66;5168906;27;20054;-62
2022/11/10 09:43:37;;;;;;;8.77;2.53;;;;;;;12.29;67.06;102280.47;5168690;27;20491;-61
2022/11/10 09:46:14;;;;;;;8.23;2.03;;;;;;;12.27;66.79;102280.66;5148655;27;20043;-61
2022/11/10 09:48:47;;;;;;;12.57;3.10;;;;;;;12.32;66.65;102280.06;5166435;27;20051;-61
2022/11/10 09:51:19;;;;;;;10.73;2.65;;;;;;;12.31;67.06;102284.63;5147672;27;20066;-61
2022/11/10 09:53:50;;;;;;;5.53;2.15;;;;;;;12.37;67.15;102294.63;5148684;27;20395;-62
2022/11/10 09:56:25;;;;;;;7.10;2.30;;;;;;;12.39;67.03;102299.81;5167983;27;20047;-61
2022/11/10 09:58:55;;;;;;;11.35;2.63;;;;;;;12.38;67.21;102296.28;5161045;27;20049;-61
2022/11/10 10:01:32;;;;;;;9.85;2.88;;;;;;;12.39;66.82;102294.44;5167077;27;20043;-62
2022/11/10 10:04:13;;;;;;;7.30;2.35;;;;;;;12.38;66.89;102287.38;5167918;27;20057;-67
2022/11/10 10:06:48;;;;;;;9.82;2.53;;;;;;;12.38;67.89;102290.91;5168163;27;20055;-60
2022/11/10 10:09:45;;;;;;;9.70;2.80;;;;;;;12.38;67.57;102290.91;5153871;27;20049;-61
2022/11/10 10:12:23;;;;;;;8.25;3.15;;;;;;;12.49;68.03;102289.50;5167869;27;20047;-60
2022/11/10 10:15:11;;;;;;;8.88;2.78;;;;;;;12.44;67.24;102289.28;5162284;27;20066;-61
2022/11/10 10:17:47;;;;;;;14.93;3.42;;;;;;;12.44;67.26;102299.22;5166966;27;20057;-61
2022/11/10 10:20:22;;;;;;;10.68;2.50;;;;;;;12.51;67.70;102306.31;5166505;27;20098;-60
2022/11/10 10:23:03;;;;;;;11.15;3.47;;;;;;;12.57;67.24;102297.44;5154474;27;20399;-60
2022/11/10 10:25:31;;;;;;;6.78;2.70;;;;;;;12.52;67.56;102302.59;5159476;27;20046;-60
2022/11/10 10:28:05;;;;;;;9.85;3.22;;;;;;;12.54;67.71;102305.09;5152928;27;20047;-60
2022/11/10 10:30:34;;;;;;;9.55;2.60;;;;;;;12.77;66.97;102311.03;5156881;27;20047;-60
2022/11/10 10:33:13;;;;;;;10.45;3.45;;;;;;;12.64;67.55;102319.03;5167573;27;20047;-60
2022/11/10 10:35:42;;;;;;;10.13;2.40;;;;;;;12.74;67.45;102324.91;5166127;27;20112;-60
2022/11/10 10:38:20;;;;;;;13.73;2.72;;;;;;;12.74;67.86;102319.50;5150236;27;20047;-61
2022/11/10 10:40:50;;;;;;;7.20;2.58;;;;;;;12.79;67.66;102329.69;5149214;27;20047;-61
2022/11/10 10:43:18;;;;;;;9.80;2.95;;;;;;;12.71;67.55;102330.69;5146057;27;20521;-60
2022/11/10 10:46:03;;;;;;;12.32;3.33;;;;;;;12.70;68.14;102339.81;5153078;27;20057;-61
2022/11/10 10:48:31;;;;;;;16.17;3.45;;;;;;;12.74;68.08;102343.78;5166165;27;20038;-61
2022/11/10 10:50:59;;;;;;;11.40;2.55;;;;;;;12.71;67.86;102353.13;5157120;27;20426;-60
2022/11/10 10:53:27;;;;;;;10.45;2.67;;;;;;;12.68;68.37;102355.38;5167393;27;20467;-60
2022/11/10 10:55:59;;;;;;;9.63;2.22;;;;;;;12.71;68.41;102350.41;5163459;27;20047;-60
2022/11/10 10:58:28;;;;;;;6.55;2.00;;;;;;;12.75;68.49;102352.72;5167019;27;20039;-59
2022/11/10 11:01:04;;;;;;;8.95;2.80;;;;;;;12.77;68.42;102353.34;5166639;27;20114;-69
2022/11/10 11:03:42;;;;;;;12.27;2.55;;;;;;;12.77;68.60;102343.38;5160664;27;20043;-61
2022/11/10 11:06:22;;;;;;;7.57;2.35;;;;;;;12.78;68.84;102342.34;5155633;27;20068;-63
2022/11/10 11:08:59;;;;;;;10.75;3.15;;;;;;;12.81;68.77;102344.66;5154902;27;20045;-62
2022/11/10 11:11:29;;;;;;;7.53;2.28;;;;;;;12.84;68.62;102346.13;4801652;27;10000275;-62
2022/11/10 11:14:20;;;;;;;10.43;2.45;;;;;;;12.84;68.64;102349.66;5157131;27;20078;-62
2022/11/10 11:16:51;;;;;;;10.35;4.53;;;;;;;12.87;68.40;102354.66;5158855;27;20050;-62
2022/11/10 11:19:21;;;;;;;13.25;2.92;;;;;;;12.88;68.09;102350.09;5162991;27;20054;-62
2022/11/10 11:22:26;;;;;;;10.05;3.53;;;;;;;12.88;68.61;102339.28;5161806;27;20054;-62
2022/11/10 11:25:01;;;;;;;10.88;1.92;;;;;;;12.92;68.27;102346.78;5147661;27;20586;-63
2022/11/10 11:27:37;;;;;;;9.48;2.03;;;;;;;12.92;68.43;102351.34;5161313;27;20047;-62
2022/11/10 11:30:09;;;;;;;15.50;2.30;;;;;;;12.91;68.12;102342.41;5162734;27;20145;-62
2022/11/10 11:33:02;;;;;;;10.60;2.65;;;;;;;12.96;68.38;102349.91;5154538;27;20051;-62
2022/11/10 11:35:39;;;;;;;11.25;2.50;;;;;;;12.97;68.11;102352.41;5148608;27;20060;-63
2022/11/10 11:38:12;;;;;;;10.73;2.00;;;;;;;12.99;68.11;102344.94;5153443;27;20131;-63
2022/11/10 11:40:48;;;;;;;9.50;2.33;;;;;;;13.03;68.12;102348.06;5150213;27;20061;-63
2022/11/10 11:43:39;;;;;;;10.38;2.00;;;;;;;13.04;67.74;102361.38;5161467;27;20062;-64
2022/11/10 11:46:17;;;;;;;6.80;1.77;;;;;;;13.11;68.12;102377.59;5151531;27;20042;-63
2022/11/10 11:48:55;;;;;;;7.28;1.95;;;;;;;13.11;68.06;102374.91;5160263;27;20050;-63
2022/11/10 11:51:27;;;;;;;8.00;1.95;;;;;;;13.14;67.75;102377.19;5146354;27;20055;-63